sensor_id;sensor_type;location;lat;lon;timestamp;pressure;altitude;pressure_sealevel;temperature;humidity
4617;BME280;2321;42.704;23.384;2023-04-03T00:01:42;94855.75;;;8.67;nan
4617;BME280;2321;42.704;23.384;2023-04-03T00:04:09;94852.06;;;8.68;nan
4617;BME280;2321;42.704;23.384;2023-04-03T00:06:38;94860.81;;;8.62;nan
4617;BME280;2321;42.704;23.384;2023-04-03T00:09:05;94848.75;;;8.59;nan
4617;BME280;2321;42.704;23.384;2023-04-03T00:11:31;94841.97;;;8.57;nan
4617;BME280;2321;42.704;23.384;2023-04-03T00:13:58;94838.06;;;8.53;nan
4617;BME280;2321;42.704;23.384;2023-04-03T00:16:25;94830.19;;;8.37;nan
4617;BME280;2321;42.704;23.384;2023-04-03T00:18:52;94799.88;;;8.18;nan
4617;BME280;2321;42.704;23.384;2023-04-03T00:21:19;94824.66;;;8.32;nan
4617;BME280;2321;42.704;23.384;2023-04-03T00:23:47;94819.16;;;8.34;nan
4617;BME280;2321;42.704;23.384;2023-04-03T00:26:14;94826.28;;;8.33;nan
4617;BME280;2321;42.704;23.384;2023-04-03T00:28:41;94823.19;;;8.30;nan
4617;BME280;2321;42.704;23.384;2023-04-03T00:31:08;94828.50;;;8.30;nan
4617;BME280;2321;42.704;23.384;2023-04-03T00:33:35;94830.34;;;8.29;nan
4617;BME280;2321;42.704;23.384;2023-04-03T00:36:06;94829.22;;;8.16;nan
4617;BME280;2321;42.704;23.384;2023-04-03T00:38:33;94827.16;;;8.12;nan
4617;BME280;2321;42.704;23.384;2023-04-03T00:41:01;94837.31;;;8.08;nan
4617;BME280;2321;42.704;23.384;2023-04-03T00:43:28;94837.09;;;8.10;nan
4617;BME280;2321;42.704;23.384;2023-04-03T00:45:58;94838.13;;;8.09;nan
4617;BME280;2321;42.704;23.384;2023-04-03T00:48:27;94841.78;;;8.07;nan
4617;BME280;2321;42.704;23.384;2023-04-03T00:50:56;94841.41;;;8.11;nan
4617;BME280;2321;42.704;23.384;2023-04-03T00:53:27;94831.69;;;7.96;nan
4617;BME280;2321;42.704;23.384;2023-04-03T00:55:55;94840.41;;;7.90;nan
4617;BME280;2321;42.704;23.384;2023-04-03T00:58:29;94830.63;;;7.90;nan
4617;BME280;2321;42.704;23.384;2023-04-03T01:00:58;94829.09;;;7.81;nan
4617;BME280;2321;42.704;23.384;2023-04-03T01:03:29;94842.81;;;7.84;nan
4617;BME280;2321;42.704;23.384;2023-04-03T01:05:57;94845.00;;;7.81;nan
4617;BME280;2321;42.704;23.384;2023-04-03T01:08:24;94841.28;;;7.75;nan
4617;BME280;2321;42.704;23.384;2023-04-03T01:10:51;94837.81;;;7.74;nan
4617;BME280;2321;42.704;23.384;2023-04-03T01:13:21;94835.31;;;7.73;nan
4617;BME280;2321;42.704;23.384;2023-04-03T01:15:50;94842.47;;;7.72;nan
4617;BME280;2321;42.704;23.384;2023-04-03T01:18:17;94848.53;;;7.66;nan
4617;BME280;2321;42.704;23.384;2023-04-03T01:24:03;94836.06;;;7.67;nan
4617;BME280;2321;42.704;23.384;2023-04-03T01:26:34;94833.25;;;7.68;nan
4617;BME280;2321;42.704;23.384;2023-04-03T01:29:01;94838.94;;;7.65;nan
4617;BME280;2321;42.704;23.384;2023-04-03T01:34:00;94841.13;;;7.61;nan
4617;BME280;2321;42.704;23.384;2023-04-03T01:36:29;94842.16;;;7.60;nan
4617;BME280;2321;42.704;23.384;2023-04-03T01:38:57;94841.69;;;7.57;nan
4617;BME280;2321;42.704;23.384;2023-04-03T01:41:25;94839.16;;;7.48;nan
4617;BME280;2321;42.704;23.384;2023-04-03T01:43:52;94829.88;;;7.37;nan
4617;BME280;2321;42.704;23.384;2023-04-03T01:46:19;94836.09;;;7.29;nan
4617;BME280;2321;42.704;23.384;2023-04-03T01:48:47;94841.69;;;7.04;nan
4617;BME280;2321;42.704;23.384;2023-04-03T01:51:15;94834.75;;;6.88;nan
4617;BME280;2321;42.704;23.384;2023-04-03T01:53:42;94838.59;;;6.85;nan
4617;BME280;2321;42.704;23.384;2023-04-03T01:56:09;94839.16;;;6.81;nan
4617;BME280;2321;42.704;23.384;2023-04-03T01:58:36;94850.28;;;6.76;nan
4617;BME280;2321;42.704;23.384;2023-04-03T02:01:03;94846.69;;;6.69;nan
4617;BME280;2321;42.704;23.384;2023-04-03T02:03:30;94851.91;;;6.62;nan
4617;BME280;2321;42.704;23.384;2023-04-03T02:05:57;94858.47;;;6.66;nan
4617;BME280;2321;42.704;23.384;2023-04-03T02:08:26;94848.25;;;6.63;nan
4617;BME280;2321;42.704;23.384;2023-04-03T02:10:53;94849.19;;;6.70;nan
4617;BME280;2321;42.704;23.384;2023-04-03T02:13:20;94817.53;;;6.62;nan
4617;BME280;2321;42.704;23.384;2023-04-03T02:15:47;94851.72;;;6.79;nan
4617;BME280;2321;42.704;23.384;2023-04-03T02:18:15;94844.06;;;6.84;nan
4617;BME280;2321;42.704;23.384;2023-04-03T02:20:42;94844.16;;;6.75;nan
4617;BME280;2321;42.704;23.384;2023-04-03T02:23:08;94845.06;;;6.83;nan
4617;BME280;2321;42.704;23.384;2023-04-03T02:25:37;94848.00;;;6.73;nan
4617;BME280;2321;42.704;23.384;2023-04-03T02:28:04;94834.94;;;6.71;nan
4617;BME280;2321;42.704;23.384;2023-04-03T02:30:31;94833.94;;;6.72;nan
4617;BME280;2321;42.704;23.384;2023-04-03T02:32:58;94835.38;;;6.75;nan
4617;BME280;2321;42.704;23.384;2023-04-03T02:35:25;94828.84;;;6.71;nan
4617;BME280;2321;42.704;23.384;2023-04-03T02:37:52;94828.19;;;6.69;nan
4617;BME280;2321;42.704;23.384;2023-04-03T02:40:19;94819.97;;;6.63;nan
4617;BME280;2321;42.704;23.384;2023-04-03T02:42:47;94823.81;;;6.61;nan
4617;BME280;2321;42.704;23.384;2023-04-03T02:45:14;94824.16;;;6.58;nan
4617;BME280;2321;42.704;23.384;2023-04-03T02:47:41;94831.13;;;6.59;nan
4617;BME280;2321;42.704;23.384;2023-04-03T02:50:08;94825.81;;;6.59;nan
4617;BME280;2321;42.704;23.384;2023-04-03T02:52:35;94826.66;;;6.59;nan
4617;BME280;2321;42.704;23.384;2023-04-03T02:55:02;94821.72;;;6.56;nan
4617;BME280;2321;42.704;23.384;2023-04-03T02:57:29;94823.69;;;6.54;nan
4617;BME280;2321;42.704;23.384;2023-04-03T02:59:57;94817.59;;;6.53;nan
4617;BME280;2321;42.704;23.384;2023-04-03T03:02:24;94825.25;;;6.48;nan
4617;BME280;2321;42.704;23.384;2023-04-03T03:04:51;94815.75;;;6.39;nan
4617;BME280;2321;42.704;23.384;2023-04-03T03:07:18;94817.41;;;6.40;nan
4617;BME280;2321;42.704;23.384;2023-04-03T03:09:44;94819.59;;;6.36;nan
4617;BME280;2321;42.704;23.384;2023-04-03T03:12:11;94820.75;;;6.34;nan
4617;BME280;2321;42.704;23.384;2023-04-03T03:14:38;94821.66;;;6.26;nan
4617;BME280;2321;42.704;23.384;2023-04-03T03:17:07;94811.78;;;6.19;nan
4617;BME280;2321;42.704;23.384;2023-04-03T03:19:34;94806.22;;;6.14;nan
4617;BME280;2321;42.704;23.384;2023-04-03T03:22:01;94811.56;;;6.06;nan
4617;BME280;2321;42.704;23.384;2023-04-03T03:24:27;94811.22;;;5.85;nan
4617;BME280;2321;42.704;23.384;2023-04-03T03:26:54;94807.75;;;5.61;nan
4617;BME280;2321;42.704;23.384;2023-04-03T03:29:21;94817.03;;;5.57;nan
4617;BME280;2321;42.704;23.384;2023-04-03T03:31:48;94807.09;;;5.59;nan
4617;BME280;2321;42.704;23.384;2023-04-03T03:34:17;94810.88;;;5.65;nan
4617;BME280;2321;42.704;23.384;2023-04-03T03:36:44;94808.69;;;5.69;nan
4617;BME280;2321;42.704;23.384;2023-04-03T03:39:12;94809.81;;;5.74;nan
4617;BME280;2321;42.704;23.384;2023-04-03T03:41:39;94815.63;;;5.70;nan
4617;BME280;2321;42.704;23.384;2023-04-03T03:44:06;94820.72;;;5.71;nan
4617;BME280;2321;42.704;23.384;2023-04-03T03:46:33;94826.50;;;5.75;nan
4617;BME280;2321;42.704;23.384;2023-04-03T03:48:59;94813.63;;;5.72;nan
4617;BME280;2321;42.704;23.384;2023-04-03T03:51:28;94817.94;;;5.73;nan
4617;BME280;2321;42.704;23.384;2023-04-03T03:53:54;94820.22;;;5.76;nan
4617;BME280;2321;42.704;23.384;2023-04-03T03:56:21;94817.75;;;5.74;nan
4617;BME280;2321;42.704;23.384;2023-04-03T03:58:48;94821.56;;;5.72;nan
4617;BME280;2321;42.704;23.384;2023-04-03T04:01:15;94815.44;;;5.71;nan
4617;BME280;2321;42.704;23.384;2023-04-03T04:03:43;94820.72;;;5.71;nan
4617;BME280;2321;42.704;23.384;2023-04-03T04:06:10;94820.09;;;5.69;nan
4617;BME280;2321;42.704;23.384;2023-04-03T04:08:38;94811.97;;;5.71;nan
4617;BME280;2321;42.704;23.384;2023-04-03T04:11:06;94809.34;;;5.71;nan
4617;BME280;2321;42.704;23.384;2023-04-03T04:13:33;94805.53;;;5.73;nan
4617;BME280;2321;42.704;23.384;2023-04-03T04:16:00;94805.53;;;5.73;nan
4617;BME280;2321;42.704;23.384;2023-04-03T04:18:27;94812.94;;;5.78;nan
4617;BME280;2321;42.704;23.384;2023-04-03T04:20:54;94818.41;;;5.76;nan
4617;BME280;2321;42.704;23.384;2023-04-03T04:23:21;94831.28;;;5.71;nan
4617;BME280;2321;42.704;23.384;2023-04-03T04:25:49;94826.34;;;5.76;nan
4617;BME280;2321;42.704;23.384;2023-04-03T04:28:16;94832.88;;;5.81;nan
4617;BME280;2321;42.704;23.384;2023-04-03T04:30:43;94837.66;;;5.85;nan
4617;BME280;2321;42.704;23.384;2023-04-03T04:33:10;94835.28;;;5.91;nan
4617;BME280;2321;42.704;23.384;2023-04-03T04:35:40;94835.19;;;5.84;nan
4617;BME280;2321;42.704;23.384;2023-04-03T04:38:08;94833.00;;;5.87;nan
4617;BME280;2321;42.704;23.384;2023-04-03T04:40:35;94838.56;;;5.93;nan
4617;BME280;2321;42.704;23.384;2023-04-03T04:43:04;94850.44;;;5.97;nan
4617;BME280;2321;42.704;23.384;2023-04-03T04:45:31;94847.25;;;6.02;nan
4617;BME280;2321;42.704;23.384;2023-04-03T04:47:58;94847.56;;;6.07;nan
4617;BME280;2321;42.704;23.384;2023-04-03T04:50:25;94847.06;;;6.12;nan
4617;BME280;2321;42.704;23.384;2023-04-03T04:52:52;94852.00;;;6.15;nan
4617;BME280;2321;42.704;23.384;2023-04-03T04:55:19;94848.03;;;6.10;nan
4617;BME280;2321;42.704;23.384;2023-04-03T04:57:46;94859.75;;;6.16;nan
4617;BME280;2321;42.704;23.384;2023-04-03T05:00:15;94863.31;;;6.24;nan
4617;BME280;2321;42.704;23.384;2023-04-03T05:02:42;94851.28;;;6.21;nan
4617;BME280;2321;42.704;23.384;2023-04-03T05:05:09;94863.03;;;6.18;nan
4617;BME280;2321;42.704;23.384;2023-04-03T05:07:36;94863.88;;;6.19;nan
4617;BME280;2321;42.704;23.384;2023-04-03T05:10:04;94867.13;;;6.21;nan
4617;BME280;2321;42.704;23.384;2023-04-03T05:12:31;94882.28;;;6.27;nan
4617;BME280;2321;42.704;23.384;2023-04-03T05:14:58;94882.41;;;6.34;nan
4617;BME280;2321;42.704;23.384;2023-04-03T05:17:26;94883.69;;;6.38;nan
4617;BME280;2321;42.704;23.384;2023-04-03T05:19:53;94887.44;;;6.44;nan
4617;BME280;2321;42.704;23.384;2023-04-03T05:22:20;94885.09;;;6.49;nan
4617;BME280;2321;42.704;23.384;2023-04-03T05:24:47;94891.66;;;6.53;nan
4617;BME280;2321;42.704;23.384;2023-04-03T05:27:14;94898.22;;;6.58;nan
4617;BME280;2321;42.704;23.384;2023-04-03T05:29:42;94887.56;;;6.66;nan
4617;BME280;2321;42.704;23.384;2023-04-03T05:32:09;94890.56;;;6.63;nan
4617;BME280;2321;42.704;23.384;2023-04-03T05:34:37;94877.91;;;6.58;nan
4617;BME280;2321;42.704;23.384;2023-04-03T05:37:04;94882.19;;;6.59;nan
4617;BME280;2321;42.704;23.384;2023-04-03T05:39:31;94875.88;;;6.60;nan
4617;BME280;2321;42.704;23.384;2023-04-03T05:41:58;94873.16;;;6.69;nan
4617;BME280;2321;42.704;23.384;2023-04-03T05:44:25;94867.69;;;6.70;nan
4617;BME280;2321;42.704;23.384;2023-04-03T05:46:52;94880.09;;;6.70;nan
4617;BME280;2321;42.704;23.384;2023-04-03T05:49:19;94886.81;;;6.57;nan
4617;BME280;2321;42.704;23.384;2023-04-03T05:51:47;94875.50;;;6.48;nan
4617;BME280;2321;42.704;23.384;2023-04-03T05:54:17;94872.59;;;6.43;nan
4617;BME280;2321;42.704;23.384;2023-04-03T05:56:45;94873.56;;;6.42;nan
4617;BME280;2321;42.704;23.384;2023-04-03T05:59:12;94870.28;;;6.40;nan
4617;BME280;2321;42.704;23.384;2023-04-03T06:01:39;94864.53;;;6.36;nan
4617;BME280;2321;42.704;23.384;2023-04-03T06:04:06;94859.78;;;6.31;nan
4617;BME280;2321;42.704;23.384;2023-04-03T06:06:49;94867.53;;;6.33;nan
4617;BME280;2321;42.704;23.384;2023-04-03T06:09:17;94857.03;;;6.25;nan
4617;BME280;2321;42.704;23.384;2023-04-03T06:11:44;94856.38;;;6.23;nan
4617;BME280;2321;42.704;23.384;2023-04-03T06:14:11;94855.94;;;6.19;nan
4617;BME280;2321;42.704;23.384;2023-04-03T06:16:39;94851.28;;;6.21;nan
4617;BME280;2321;42.704;23.384;2023-04-03T06:19:06;94835.13;;;6.16;nan
4617;BME280;2321;42.704;23.384;2023-04-03T06:21:33;94849.50;;;6.37;nan
4617;BME280;2321;42.704;23.384;2023-04-03T06:24:03;94848.38;;;6.31;nan
4617;BME280;2321;42.704;23.384;2023-04-03T06:26:30;94850.31;;;6.37;nan
4617;BME280;2321;42.704;23.384;2023-04-03T06:28:57;94852.59;;;6.40;nan
4617;BME280;2321;42.704;23.384;2023-04-03T06:31:24;94860.72;;;6.54;nan
4617;BME280;2321;42.704;23.384;2023-04-03T06:33:51;94855.53;;;6.61;nan
4617;BME280;2321;42.704;23.384;2023-04-03T06:36:18;94855.00;;;6.65;nan
4617;BME280;2321;42.704;23.384;2023-04-03T06:38:47;94863.13;;;6.79;nan
4617;BME280;2321;42.704;23.384;2023-04-03T06:41:15;94875.44;;;6.87;nan
4617;BME280;2321;42.704;23.384;2023-04-03T06:43:42;94870.81;;;7.04;nan
4617;BME280;2321;42.704;23.384;2023-04-03T06:46:13;94873.09;;;7.23;nan
4617;BME280;2321;42.704;23.384;2023-04-03T06:48:41;94869.59;;;7.37;nan
4617;BME280;2321;42.704;23.384;2023-04-03T06:51:16;94862.81;;;7.50;nan
4617;BME280;2321;42.704;23.384;2023-04-03T06:53:44;94856.66;;;7.65;nan
4617;BME280;2321;42.704;23.384;2023-04-03T06:56:11;94852.13;;;7.80;nan
4617;BME280;2321;42.704;23.384;2023-04-03T06:58:40;94859.41;;;7.93;nan
4617;BME280;2321;42.704;23.384;2023-04-03T07:01:07;94863.19;;;8.06;nan
4617;BME280;2321;42.704;23.384;2023-04-03T07:03:35;94865.72;;;8.14;nan
4617;BME280;2321;42.704;23.384;2023-04-03T07:06:02;94865.81;;;8.28;nan
4617;BME280;2321;42.704;23.384;2023-04-03T07:08:29;94864.66;;;8.37;nan
4617;BME280;2321;42.704;23.384;2023-04-03T07:10:56;94866.81;;;8.49;nan
4617;BME280;2321;42.704;23.384;2023-04-03T07:13:23;94856.97;;;8.65;nan
4617;BME280;2321;42.704;23.384;2023-04-03T07:15:52;94849.41;;;8.68;nan
4617;BME280;2321;42.704;23.384;2023-04-03T07:18:19;94852.56;;;8.79;nan
4617;BME280;2321;42.704;23.384;2023-04-03T07:20:47;94848.09;;;8.79;nan
4617;BME280;2321;42.704;23.384;2023-04-03T07:23:13;94852.78;;;8.84;nan
4617;BME280;2321;42.704;23.384;2023-04-03T07:25:43;94856.03;;;8.79;nan
4617;BME280;2321;42.704;23.384;2023-04-03T07:28:10;94856.56;;;8.68;nan
4617;BME280;2321;42.704;23.384;2023-04-03T07:30:48;94846.91;;;8.60;nan
4617;BME280;2321;42.704;23.384;2023-04-03T07:33:18;94859.19;;;8.61;nan
4617;BME280;2321;42.704;23.384;2023-04-03T07:35:46;94852.66;;;8.64;nan
4617;BME280;2321;42.704;23.384;2023-04-03T07:38:13;94839.41;;;8.64;nan
4617;BME280;2321;42.704;23.384;2023-04-03T07:40:40;94852.91;;;8.69;nan
4617;BME280;2321;42.704;23.384;2023-04-03T07:43:11;94852.72;;;8.70;nan
4617;BME280;2321;42.704;23.384;2023-04-03T07:45:38;94852.50;;;8.72;nan
4617;BME280;2321;42.704;23.384;2023-04-03T07:48:05;94844.94;;;8.69;nan
4617;BME280;2321;42.704;23.384;2023-04-03T07:50:33;94835.59;;;8.73;nan
4617;BME280;2321;42.704;23.384;2023-04-03T07:53:01;94818.88;;;8.79;nan
4617;BME280;2321;42.704;23.384;2023-04-03T07:55:28;94817.06;;;8.80;nan
4617;BME280;2321;42.704;23.384;2023-04-03T07:57:55;94811.34;;;8.83;nan
4617;BME280;2321;42.704;23.384;2023-04-03T08:00:23;94812.59;;;8.87;nan
4617;BME280;2321;42.704;23.384;2023-04-03T08:02:50;94823.69;;;8.98;nan
4617;BME280;2321;42.704;23.384;2023-04-03T08:05:17;94822.69;;;9.06;nan
4617;BME280;2321;42.704;23.384;2023-04-03T08:07:45;94814.56;;;9.21;nan
4617;BME280;2321;42.704;23.384;2023-04-03T08:10:13;94815.47;;;9.35;nan
4617;BME280;2321;42.704;23.384;2023-04-03T08:12:41;94809.59;;;9.53;nan
4617;BME280;2321;42.704;23.384;2023-04-03T08:15:08;94812.69;;;9.64;nan
4617;BME280;2321;42.704;23.384;2023-04-03T08:17:35;94809.03;;;9.78;nan
4617;BME280;2321;42.704;23.384;2023-04-03T08:20:03;94782.03;;;9.75;nan
4617;BME280;2321;42.704;23.384;2023-04-03T08:22:31;94799.44;;;10.05;nan
4617;BME280;2321;42.704;23.384;2023-04-03T08:25:00;94795.38;;;10.22;nan
4617;BME280;2321;42.704;23.384;2023-04-03T08:27:27;94800.69;;;10.36;nan
4617;BME280;2321;42.704;23.384;2023-04-03T08:29:54;94801.91;;;10.40;nan
4617;BME280;2321;42.704;23.384;2023-04-03T08:32:22;94802.53;;;10.56;nan
4617;BME280;2321;42.704;23.384;2023-04-03T08:34:49;94801.91;;;10.67;nan
4617;BME280;2321;42.704;23.384;2023-04-03T08:37:16;94800.03;;;10.82;nan
4617;BME280;2321;42.704;23.384;2023-04-03T08:39:43;94798.97;;;10.89;nan
4617;BME280;2321;42.704;23.384;2023-04-03T08:42:16;94789.97;;;10.97;nan
4617;BME280;2321;42.704;23.384;2023-04-03T08:44:53;94775.38;;;11.07;nan
4617;BME280;2321;42.704;23.384;2023-04-03T08:47:28;94778.41;;;11.17;nan
4617;BME280;2321;42.704;23.384;2023-04-03T08:49:59;94784.75;;;11.16;nan
4617;BME280;2321;42.704;23.384;2023-04-03T08:52:33;94779.59;;;11.28;nan
4617;BME280;2321;42.704;23.384;2023-04-03T08:55:02;94772.97;;;11.38;nan
4617;BME280;2321;42.704;23.384;2023-04-03T08:57:35;94774.16;;;11.49;nan
4617;BME280;2321;42.704;23.384;2023-04-03T09:00:06;94770.00;;;11.60;nan
4617;BME280;2321;42.704;23.384;2023-04-03T09:02:35;94772.63;;;11.66;nan
4617;BME280;2321;42.704;23.384;2023-04-03T09:05:11;94764.78;;;11.72;nan
4617;BME280;2321;42.704;23.384;2023-04-03T09:07:43;94770.25;;;11.84;nan
4617;BME280;2321;42.704;23.384;2023-04-03T09:10:13;94760.97;;;11.93;nan
4617;BME280;2321;42.704;23.384;2023-04-03T09:12:44;94762.16;;;11.97;nan
4617;BME280;2321;42.704;23.384;2023-04-03T09:15:19;94755.31;;;12.08;nan
4617;BME280;2321;42.704;23.384;2023-04-03T09:17:54;94749.16;;;12.08;nan
4617;BME280;2321;42.704;23.384;2023-04-03T09:20:33;94754.88;;;12.12;nan
4617;BME280;2321;42.704;23.384;2023-04-03T09:23:09;94753.63;;;12.14;nan
4617;BME280;2321;42.704;23.384;2023-04-03T09:25:40;94747.66;;;12.19;nan
4617;BME280;2321;42.704;23.384;2023-04-03T09:28:09;94742.72;;;12.23;nan
4617;BME280;2321;42.704;23.384;2023-04-03T09:30:36;94741.44;;;12.25;nan
4617;BME280;2321;42.704;23.384;2023-04-03T09:33:04;94745.75;;;12.26;nan
4617;BME280;2321;42.704;23.384;2023-04-03T09:35:33;94725.63;;;12.24;nan
4617;BME280;2321;42.704;23.384;2023-04-03T09:38:01;94733.97;;;12.34;nan
4617;BME280;2321;42.704;23.384;2023-04-03T09:40:34;94706.97;;;12.24;nan
4617;BME280;2321;42.704;23.384;2023-04-03T09:43:24;94730.00;;;12.44;nan
4617;BME280;2321;42.704;23.384;2023-04-03T09:45:52;94731.19;;;12.48;nan
4617;BME280;2321;42.704;23.384;2023-04-03T09:48:20;94722.50;;;12.52;nan
4617;BME280;2321;42.704;23.384;2023-04-03T09:50:59;94720.59;;;12.60;nan
4617;BME280;2321;42.704;23.384;2023-04-03T09:53:31;94723.16;;;12.67;nan
4617;BME280;2321;42.704;23.384;2023-04-03T09:56:00;94715.47;;;12.77;nan
4617;BME280;2321;42.704;23.384;2023-04-03T09:58:32;94712.13;;;12.82;nan
4617;BME280;2321;42.704;23.384;2023-04-03T10:01:01;94707.59;;;12.82;nan
4617;BME280;2321;42.704;23.384;2023-04-03T10:03:31;94704.63;;;12.91;nan
4617;BME280;2321;42.704;23.384;2023-04-03T10:05:59;94710.56;;;12.93;nan
4617;BME280;2321;42.704;23.384;2023-04-03T10:08:29;94704.03;;;12.89;nan
4617;BME280;2321;42.704;23.384;2023-04-03T10:11:08;94680.38;;;12.73;nan
4617;BME280;2321;42.704;23.384;2023-04-03T10:13:49;94703.97;;;12.95;nan
4617;BME280;2321;42.704;23.384;2023-04-03T10:16:18;94700.63;;;13.00;nan
4617;BME280;2321;42.704;23.384;2023-04-03T10:18:53;94699.81;;;13.00;nan
4617;BME280;2321;42.704;23.384;2023-04-03T10:21:32;94702.59;;;13.05;nan
4617;BME280;2321;42.704;23.384;2023-04-03T10:24:08;94696.44;;;13.04;nan
4617;BME280;2321;42.704;23.384;2023-04-03T10:26:44;94692.28;;;13.09;nan
4617;BME280;2321;42.704;23.384;2023-04-03T10:29:26;94695.53;;;13.11;nan
4617;BME280;2321;42.704;23.384;2023-04-03T10:32:01;94689.47;;;13.03;nan
4617;BME280;2321;42.704;23.384;2023-04-03T10:34:31;94686.56;;;13.05;nan
4617;BME280;2321;42.704;23.384;2023-04-03T10:37:06;94679.31;;;13.12;nan
4617;BME280;2321;42.704;23.384;2023-04-03T10:39:43;94679.44;;;13.17;nan
4617;BME280;2321;42.704;23.384;2023-04-03T10:42:19;94678.53;;;13.24;nan
4617;BME280;2321;42.704;23.384;2023-04-03T10:45:03;94677.00;;;13.28;nan
4617;BME280;2321;42.704;23.384;2023-04-03T10:47:42;94670.63;;;13.29;nan
4617;BME280;2321;42.704;23.384;2023-04-03T10:50:26;94666.09;;;13.29;nan
4617;BME280;2321;42.704;23.384;2023-04-03T10:52:57;94664.34;;;13.23;nan
4617;BME280;2321;42.704;23.384;2023-04-03T10:55:34;94661.66;;;13.23;nan
4617;BME280;2321;42.704;23.384;2023-04-03T10:58:04;94656.31;;;13.23;nan
4617;BME280;2321;42.704;23.384;2023-04-03T11:00:38;94667.00;;;13.23;nan
4617;BME280;2321;42.704;23.384;2023-04-03T11:03:10;94664.91;;;13.25;nan
4617;BME280;2321;42.704;23.384;2023-04-03T11:05:42;94671.91;;;13.26;nan
4617;BME280;2321;42.704;23.384;2023-04-03T11:08:15;94673.22;;;13.36;nan
4617;BME280;2321;42.704;23.384;2023-04-03T11:10:48;94672.41;;;13.35;nan
4617;BME280;2321;42.704;23.384;2023-04-03T11:13:19;94676.78;;;13.29;nan
4617;BME280;2321;42.704;23.384;2023-04-03T11:15:51;94676.56;;;13.31;nan
4617;BME280;2321;42.704;23.384;2023-04-03T11:18:22;94681.78;;;13.26;nan
4617;BME280;2321;42.704;23.384;2023-04-03T11:20:58;94681.84;;;13.19;nan
4617;BME280;2321;42.704;23.384;2023-04-03T11:23:29;94684.00;;;13.29;nan
4617;BME280;2321;42.704;23.384;2023-04-03T11:26:07;94676.06;;;13.22;nan
4617;BME280;2321;42.704;23.384;2023-04-03T11:28:35;94668.59;;;13.12;nan
4617;BME280;2321;42.704;23.384;2023-04-03T11:31:11;94670.31;;;13.06;nan
4617;BME280;2321;42.704;23.384;2023-04-03T11:33:47;94679.25;;;13.00;nan
4617;BME280;2321;42.704;23.384;2023-04-03T11:36:22;94671.06;;;12.95;nan
4617;BME280;2321;42.704;23.384;2023-04-03T11:38:53;94673.38;;;12.91;nan
4617;BME280;2321;42.704;23.384;2023-04-03T11:41:26;94666.03;;;12.87;nan
4617;BME280;2321;42.704;23.384;2023-04-03T11:43:59;94669.31;;;12.89;nan
4617;BME280;2321;42.704;23.384;2023-04-03T11:46:50;94662.19;;;12.82;nan
4617;BME280;2321;42.704;23.384;2023-04-03T11:49:53;94669.47;;;12.75;nan
4617;BME280;2321;42.704;23.384;2023-04-03T11:52:56;94662.34;;;12.69;nan
4617;BME280;2321;42.704;23.384;2023-04-03T11:55:45;94669.56;;;12.68;nan
4617;BME280;2321;42.704;23.384;2023-04-03T11:58:19;94657.53;;;12.59;nan
4617;BME280;2321;42.704;23.384;2023-04-03T12:01:02;94671.84;;;12.64;nan
4617;BME280;2321;42.704;23.384;2023-04-03T12:09:29;94673.34;;;12.41;nan
4617;BME280;2321;42.704;23.384;2023-04-03T12:12:00;94673.78;;;12.38;nan
4617;BME280;2321;42.704;23.384;2023-04-03T12:14:28;94681.03;;;12.31;nan
4617;BME280;2321;42.704;23.384;2023-04-03T12:16:56;94677.78;;;12.29;nan
4617;BME280;2321;42.704;23.384;2023-04-03T12:19:34;94680.94;;;12.19;nan
4617;BME280;2321;42.704;23.384;2023-04-03T12:22:20;94675.03;;;12.10;nan
4617;BME280;2321;42.704;23.384;2023-04-03T12:24:49;94664.22;;;12.05;nan
4617;BME280;2321;42.704;23.384;2023-04-03T12:27:24;94654.34;;;12.05;nan
4617;BME280;2321;42.704;23.384;2023-04-03T12:29:55;94659.34;;;12.02;nan
4617;BME280;2321;42.704;23.384;2023-04-03T12:35:35;94648.66;;;11.76;nan
4617;BME280;2321;42.704;23.384;2023-04-03T12:38:23;94652.59;;;11.73;nan
4617;BME280;2321;42.704;23.384;2023-04-03T12:40:58;94647.31;;;11.66;nan
4617;BME280;2321;42.704;23.384;2023-04-03T12:43:42;94641.63;;;11.56;nan
4617;BME280;2321;42.704;23.384;2023-04-03T12:46:13;94635.13;;;11.52;nan
4617;BME280;2321;42.704;23.384;2023-04-03T12:48:48;94624.72;;;11.43;nan
4617;BME280;2321;42.704;23.384;2023-04-03T12:51:20;94624.53;;;11.38;nan
4617;BME280;2321;42.704;23.384;2023-04-03T12:53:49;94619.44;;;11.37;nan
4617;BME280;2321;42.704;23.384;2023-04-03T12:56:25;94613.13;;;11.31;nan
4617;BME280;2321;42.704;23.384;2023-04-03T12:58:54;94617.06;;;11.28;nan
4617;BME280;2321;42.704;23.384;2023-04-03T13:01:24;94620.50;;;11.29;nan
4617;BME280;2321;42.704;23.384;2023-04-03T13:03:54;94613.19;;;11.24;nan
4617;BME280;2321;42.704;23.384;2023-04-03T13:06:26;94624.03;;;11.22;nan
4617;BME280;2321;42.704;23.384;2023-04-03T13:08:55;94620.19;;;11.18;nan
4617;BME280;2321;42.704;23.384;2023-04-03T13:11:24;94628.81;;;11.14;nan
4617;BME280;2321;42.704;23.384;2023-04-03T13:13:59;94618.00;;;11.08;nan
4617;BME280;2321;42.704;23.384;2023-04-03T13:16:26;94615.31;;;11.08;nan
4617;BME280;2321;42.704;23.384;2023-04-03T13:18:54;94618.22;;;11.07;nan
4617;BME280;2321;42.704;23.384;2023-04-03T13:21:25;94616.78;;;11.04;nan
4617;BME280;2321;42.704;23.384;2023-04-03T13:23:55;94611.88;;;11.01;nan
4617;BME280;2321;42.704;23.384;2023-04-03T13:26:25;94612.09;;;10.99;nan
4617;BME280;2321;42.704;23.384;2023-04-03T13:28:53;94611.28;;;10.99;nan
4617;BME280;2321;42.704;23.384;2023-04-03T13:31:25;94607.59;;;11.00;nan
4617;BME280;2321;42.704;23.384;2023-04-03T13:33:56;94597.97;;;10.99;nan
4617;BME280;2321;42.704;23.384;2023-04-03T13:36:27;94597.38;;;10.97;nan
4617;BME280;2321;42.704;23.384;2023-04-03T13:39:02;94603.13;;;10.94;nan
4617;BME280;2321;42.704;23.384;2023-04-03T13:41:31;94601.06;;;10.96;nan
4617;BME280;2321;42.704;23.384;2023-04-03T13:44:29;94595.97;;;10.94;nan
4617;BME280;2321;42.704;23.384;2023-04-03T13:46:58;94596.38;;;10.91;nan
4617;BME280;2321;42.704;23.384;2023-04-03T13:49:31;94591.66;;;10.93;nan
4617;BME280;2321;42.704;23.384;2023-04-03T13:52:01;94587.16;;;10.94;nan
4617;BME280;2321;42.704;23.384;2023-04-03T13:54:33;94594.75;;;10.90;nan
4617;BME280;2321;42.704;23.384;2023-04-03T13:57:02;94592.31;;;10.88;nan
4617;BME280;2321;42.704;23.384;2023-04-03T13:59:31;94584.53;;;10.80;nan
4617;BME280;2321;42.704;23.384;2023-04-03T14:02:15;94587.88;;;10.75;nan
4617;BME280;2321;42.704;23.384;2023-04-03T14:04:50;94578.50;;;10.66;nan
4617;BME280;2321;42.704;23.384;2023-04-03T14:07:19;94581.41;;;10.57;nan
4617;BME280;2321;42.704;23.384;2023-04-03T14:09:47;94584.06;;;10.57;nan